Portada
METAR-TAF:

METAR-TAF

Aeroports :

Futuna, França

latitud: 14-19S, longitud: 178-07W, altitud: 6 m

METAR: manca

Hora: 21:31 (09:31 UTC)

Pronòstic

L'informe es va fer fa 4 hores i 31 minuts, a les 05:00 UTC
Pronòstic vàlid del 05 a les 06 UTC al 06 a les 06 UTC
Vent 15 kt del Est
Visibilitat 10 km o més
Núvols disperses a una alçada de 1500 ft
Núvols disperses a una alçada de 3000 ft
Temporalment
l' 05 a les 06 UTC al 05 a les 12 UTC
Cel ennuvolat a una alçada de 1400 ft
Núvols disperses a una alçada de 2000 ft, Cumulus congestus.
xàfecs de pluja
Probabilitat 40% :
Temporalment
l' 05 a les 12 UTC al 06 a les 06 UTC
Visibilitat: 4000 m
Cel ennuvolat a una alçada de 1200 ft
Núvols disperses a una alçada de 2000 ft, Cumulus congestus.
xàfecs de pluja

TAF: NLWF 050500Z 0506/0606 10015KT 9999 SCT015 SCT030 TEMPO 0506/0512 SHRA BKN014 SCT020TCU PROB40 TEMPO 0512/0606 4000 SHRA BKN012 SCT020TCU

Observacions i pronòstics meteorològics de més de 4000 aeroports (METAR i TAF).

Les estacions disponibles són els punts grocs i vermells al mapa.

Posi el ratolí al punt desitjat per veure el nom de l'estació.

Feu clic per veure les observacions i els pronòstics meteorològics.

Per canviar el mapa: feu clic els botons verds amb una creu de color negre per apropar; al botó verd amb un guió per allunyar la imatge; o en les fletxes verdes per a mapes adjacents.


METAR-TAF: